createdAt,value
2022-10-21T00:18:00.914Z,5.25
2022-10-21T00:20:48.004Z,6.25
2022-10-21T00:23:34.019Z,6.70
2022-10-21T00:26:21.870Z,6.78
2022-10-21T00:29:07.952Z,6.20
2022-10-21T00:31:54.655Z,6.78
2022-10-21T00:34:43.301Z,6.47
2022-10-21T00:37:30.931Z,6.18
2022-10-21T00:40:18.040Z,6.72
2022-10-21T00:43:04.827Z,6.40
2022-10-21T00:45:54.579Z,8.15
2022-10-21T00:48:43.101Z,7.78
2022-10-21T00:51:30.700Z,6.30
2022-10-21T00:54:18.044Z,6.40
2022-10-21T00:57:11.945Z,6.62
2022-10-21T01:00:00.585Z,6.85
2022-10-21T01:02:47.334Z,6.40
2022-10-21T01:05:37.730Z,6.15
2022-10-21T01:08:25.701Z,6.85
2022-10-21T01:11:15.390Z,5.95
2022-10-21T01:14:24.638Z,6.22
2022-10-21T01:17:51.221Z,5.57
2022-10-21T01:21:09.277Z,5.95
2022-10-21T01:24:29.790Z,5.45
2022-10-21T01:27:50.161Z,5.70
2022-10-21T01:30:38.198Z,6.82
2022-10-21T01:33:52.603Z,6.70
2022-10-21T01:36:42.895Z,6.07
2022-10-21T01:39:39.250Z,6.00
2022-10-21T01:42:32.934Z,6.40
2022-10-21T01:45:33.648Z,6.28
2022-10-21T01:48:34.553Z,5.97
2022-10-21T01:51:22.905Z,6.50
2022-10-21T01:54:14.297Z,6.87
2022-10-21T01:57:02.567Z,6.05
2022-10-21T01:59:49.895Z,6.00
2022-10-21T02:02:39.732Z,6.57
2022-10-21T02:05:31.768Z,7.37
2022-10-21T02:08:17.842Z,6.57
2022-10-21T02:11:07.749Z,5.78
2022-10-21T02:14:02.837Z,6.30
2022-10-21T02:16:50.127Z,6.00
2022-10-21T02:19:39.131Z,6.10
2022-10-21T02:22:25.683Z,6.72
2022-10-21T02:25:23.118Z,6.43
2022-10-21T02:28:10.078Z,5.85
2022-10-21T02:31:14.398Z,6.20
2022-10-21T02:34:14.937Z,6.03
2022-10-21T02:37:11.254Z,6.05
2022-10-21T02:40:18.928Z,6.20
2022-10-21T02:43:11.085Z,5.93
2022-10-21T02:46:05.953Z,6.50
2022-10-21T02:48:53.306Z,6.43
2022-10-21T02:51:41.141Z,5.87
2022-10-21T02:54:27.361Z,6.03
2022-10-21T02:57:14.173Z,5.75
2022-10-21T03:00:00.651Z,5.60
2022-10-21T03:02:50.765Z,5.75
2022-10-21T03:05:37.594Z,5.35
2022-10-21T03:08:23.873Z,5.45
2022-10-21T03:11:11.547Z,5.43
2022-10-21T03:13:59.145Z,5.37
2022-10-21T03:16:45.772Z,5.07
2022-10-21T03:19:39.032Z,6.07
2022-10-21T03:22:25.524Z,4.95
2022-10-21T03:25:14.008Z,5.37
2022-10-21T03:28:00.383Z,5.28
2022-10-21T03:30:46.608Z,4.95
2022-10-21T03:33:33.034Z,5.25
2022-10-21T03:36:19.972Z,4.90
2022-10-21T03:39:06.792Z,5.18
2022-10-21T03:41:53.597Z,6.00
2022-10-21T03:44:40.368Z,5.50
2022-10-21T03:47:27.635Z,6.03
2022-10-21T03:50:17.331Z,5.80
2022-10-21T03:53:13.780Z,5.65
2022-10-21T03:56:14.808Z,5.85
2022-10-21T03:59:06.751Z,6.07
2022-10-21T04:01:54.680Z,6.75
2022-10-21T04:04:42.210Z,7.15
2022-10-21T04:07:32.441Z,6.72
2022-10-21T04:10:22.989Z,7.62
2022-10-21T04:13:09.757Z,7.68
2022-10-21T04:16:00.864Z,7.82
2022-10-21T04:18:51.277Z,8.85
2022-10-21T04:21:38.049Z,8.27
2022-10-21T04:24:24.630Z,8.15
2022-10-21T04:27:11.287Z,8.77
2022-10-21T04:29:58.781Z,8.15
2022-10-21T04:32:56.598Z,8.35
2022-10-21T04:35:46.518Z,8.27
2022-10-21T04:38:34.089Z,8.10
2022-10-21T04:41:29.487Z,8.20
2022-10-21T04:44:17.509Z,8.05
2022-10-21T04:47:06.437Z,7.60
2022-10-21T04:49:54.954Z,7.28
2022-10-21T04:52:41.902Z,8.18
2022-10-21T04:55:31.500Z,8.35
2022-10-21T04:58:21.871Z,9.02
2022-10-21T05:01:11.839Z,8.38
2022-10-21T05:04:01.660Z,7.55
2022-10-21T05:06:49.140Z,8.40
2022-10-21T05:09:43.634Z,7.75
2022-10-21T05:12:31.063Z,8.80
2022-10-21T05:15:17.633Z,7.90
2022-10-21T05:18:05.608Z,8.10
2022-10-21T05:20:55.122Z,7.25
2022-10-21T05:23:42.208Z,8.50
2022-10-21T05:26:32.770Z,8.52
2022-10-21T05:29:25.642Z,8.10
2022-10-21T05:32:18.935Z,8.63
2022-10-21T05:35:12.377Z,8.50
2022-10-21T05:37:59.146Z,8.15
2022-10-21T05:40:45.967Z,8.90
2022-10-21T05:43:33.766Z,7.80
2022-10-21T05:46:21.077Z,7.57
2022-10-21T05:49:12.849Z,9.15
2022-10-21T05:52:06.484Z,8.52
2022-10-21T05:57:46.997Z,8.50
2022-10-21T06:00:35.817Z,8.65
2022-10-21T06:03:26.007Z,8.27
2022-10-21T06:06:12.986Z,12.25
2022-10-21T06:09:01.367Z,9.85
2022-10-21T06:11:48.930Z,8.48
2022-10-21T06:17:30.569Z,10.98
2022-10-21T06:20:19.630Z,10.63
2022-10-21T06:23:12.400Z,9.68
2022-10-21T06:26:01.826Z,8.73
2022-10-21T06:28:49.169Z,8.80
2022-10-21T06:31:37.917Z,8.75
2022-10-21T06:34:27.586Z,9.55
2022-10-21T06:37:16.511Z,8.85
2022-10-21T06:40:05.830Z,9.43
2022-10-21T06:42:53.576Z,8.25
2022-10-21T06:45:39.985Z,9.20
2022-10-21T06:48:27.070Z,8.40
2022-10-21T06:51:20.117Z,9.13
2022-10-21T06:54:09.886Z,8.60
2022-10-21T06:56:56.838Z,8.20
2022-10-21T06:59:47.493Z,9.05
2022-10-21T07:02:34.489Z,8.52
2022-10-21T07:05:22.149Z,8.80
2022-10-21T07:08:12.068Z,8.05
2022-10-21T07:11:00.884Z,8.48
2022-10-21T07:13:58.478Z,7.65
2022-10-21T07:16:55.687Z,7.37
2022-10-21T07:19:42.641Z,7.28
2022-10-21T07:22:38.559Z,6.35
2022-10-21T07:25:27.941Z,7.37
2022-10-21T07:28:15.923Z,5.78
2022-10-21T07:31:06.123Z,6.07
2022-10-21T07:33:53.624Z,5.75
2022-10-21T07:36:52.852Z,5.78
2022-10-21T07:39:39.616Z,6.20
2022-10-21T07:42:28.694Z,5.07
2022-10-21T07:45:16.578Z,5.90
2022-10-21T07:48:03.260Z,5.87
2022-10-21T07:50:52.624Z,5.82
2022-10-21T07:53:42.530Z,5.40
2022-10-21T07:56:34.823Z,5.18
2022-10-21T07:59:23.554Z,5.37
2022-10-21T08:02:14.164Z,5.43
2022-10-21T08:05:00.659Z,5.82
2022-10-21T08:07:48.979Z,6.10
2022-10-21T08:10:47.521Z,6.20
2022-10-21T08:13:35.655Z,5.57
2022-10-21T08:16:25.682Z,5.28
2022-10-21T08:19:20.508Z,5.53
2022-10-21T08:22:09.863Z,4.97
2022-10-21T08:24:56.740Z,5.32
2022-10-21T08:27:46.524Z,4.97
2022-10-21T08:30:35.742Z,5.43
2022-10-21T08:33:26.523Z,5.30
2022-10-21T08:36:18.088Z,5.30
2022-10-21T08:39:08.666Z,5.05
2022-10-21T08:41:55.538Z,5.28
2022-10-21T08:44:57.102Z,5.18
2022-10-21T08:47:56.738Z,5.87
2022-10-21T08:50:50.739Z,6.07
2022-10-21T08:53:52.466Z,5.50
2022-10-21T08:56:40.520Z,5.40
2022-10-21T08:59:28.956Z,4.97
2022-10-21T09:02:25.616Z,4.55
2022-10-21T09:05:16.649Z,4.37
2022-10-21T09:08:15.976Z,3.85
2022-10-21T09:11:24.625Z,4.22
2022-10-21T09:14:51.042Z,3.85
2022-10-21T09:18:33.739Z,4.00
2022-10-21T09:21:27.588Z,4.10
2022-10-21T09:24:50.722Z,3.97
2022-10-21T09:27:55.186Z,4.00
2022-10-21T09:30:44.405Z,3.40
2022-10-21T09:33:32.856Z,3.50
2022-10-21T09:36:49.472Z,3.87
2022-10-21T09:39:42.148Z,3.65
2022-10-21T09:42:46.292Z,3.83
2022-10-21T09:45:45.306Z,3.75
2022-10-21T09:52:05.114Z,3.30
2022-10-21T09:54:58.966Z,3.62
2022-10-21T09:57:54.502Z,3.08
2022-10-21T10:00:50.790Z,2.70
2022-10-21T10:03:47.368Z,3.20
2022-10-21T10:06:46.461Z,3.08
2022-10-21T10:09:37.105Z,3.30
2022-10-21T10:12:27.388Z,3.55
2022-10-21T10:15:31.477Z,3.28
2022-10-21T10:18:22.687Z,3.45
2022-10-21T10:21:23.390Z,3.70
2022-10-21T10:24:21.471Z,3.60
2022-10-21T10:27:23.384Z,3.90
2022-10-21T10:30:14.258Z,3.12
2022-10-21T10:33:08.432Z,3.87
2022-10-21T10:36:05.569Z,3.40
2022-10-21T10:38:56.821Z,3.30
2022-10-21T10:41:47.610Z,3.65
2022-10-21T10:44:42.962Z,3.20
2022-10-21T10:47:32.719Z,3.20
2022-10-21T10:50:38.355Z,3.62
2022-10-21T11:32:58.427Z,3.30
2022-10-21T11:39:27.507Z,3.87
2022-10-21T11:42:25.418Z,2.70
2022-10-21T11:45:56.673Z,2.65
2022-10-21T11:49:04.770Z,3.55
2022-10-21T11:52:37.926Z,2.80
2022-10-21T11:59:15.125Z,3.53
2022-10-21T12:02:18.019Z,2.85
2022-10-21T12:05:32.961Z,3.10
2022-10-21T12:08:41.344Z,2.65
2022-10-21T12:11:58.472Z,2.75
2022-10-21T12:14:58.436Z,2.55
2022-10-21T12:17:49.127Z,3.00
2022-10-21T12:20:42.194Z,2.92
2022-10-21T12:23:32.606Z,2.50
2022-10-21T12:30:02.443Z,2.80
2022-10-21T12:33:16.292Z,2.87
2022-10-21T12:36:21.736Z,3.00
2022-10-21T12:39:32.853Z,2.62
2022-10-21T12:42:33.831Z,2.83
2022-10-21T12:45:30.465Z,2.75
2022-10-21T12:48:31.519Z,2.55
2022-10-21T12:51:39.585Z,2.83
2022-10-21T12:54:43.333Z,2.78
2022-10-21T12:57:37.128Z,3.00
2022-10-21T13:00:36.589Z,2.80
2022-10-21T13:03:56.530Z,2.80
2022-10-21T13:06:53.275Z,2.80
2022-10-21T13:09:44.013Z,2.72
2022-10-21T13:12:40.707Z,2.92
2022-10-21T13:15:32.478Z,4.85
2022-10-21T13:19:12.559Z,3.08
2022-10-21T13:22:14.907Z,3.12
2022-10-21T13:25:22.877Z,3.05
2022-10-21T13:28:12.419Z,3.25
2022-10-21T13:31:00.636Z,3.10
2022-10-21T13:33:52.725Z,3.37
2022-10-21T13:36:47.473Z,3.37
2022-10-21T13:39:42.945Z,3.25
2022-10-21T13:42:41.226Z,3.17
2022-10-21T13:48:52.529Z,3.33
2022-10-21T13:51:47.719Z,3.40
2022-10-21T13:54:38.528Z,3.00
2022-10-21T13:57:40.632Z,3.00
2022-10-21T14:00:32.815Z,2.78
2022-10-21T14:03:28.073Z,3.12
2022-10-21T14:06:31.966Z,2.97
2022-10-21T14:09:24.799Z,2.62
2022-10-21T14:15:23.545Z,2.37
2022-10-21T14:18:29.393Z,2.50
2022-10-21T14:21:24.608Z,2.53
2022-10-21T14:24:36.935Z,3.12
2022-10-21T14:27:45.436Z,3.12
2022-10-21T14:30:37.105Z,2.92
2022-10-21T14:36:34.515Z,3.12
2022-10-21T14:39:37.066Z,2.80
2022-10-21T14:42:26.550Z,2.93
2022-10-21T14:45:18.266Z,2.90
2022-10-21T14:48:28.140Z,2.65
2022-10-21T14:51:25.616Z,2.70
2022-10-21T14:54:33.641Z,2.87
2022-10-21T14:57:50.222Z,3.03
2022-10-21T15:00:42.492Z,3.30
2022-10-21T15:03:45.450Z,3.10
2022-10-21T15:06:38.485Z,3.25
2022-10-21T15:09:37.750Z,2.95
2022-10-21T15:12:33.439Z,2.67
2022-10-21T15:15:53.959Z,3.12
2022-10-21T15:18:53.974Z,3.00
2022-10-21T15:21:55.434Z,2.78
2022-10-21T15:24:51.737Z,3.33
2022-10-21T15:27:49.069Z,3.25
2022-10-21T15:33:49.440Z,3.45
2022-10-21T15:36:37.963Z,3.87
2022-10-21T15:42:27.503Z,3.33
2022-10-21T15:45:23.784Z,3.85
2022-10-21T15:48:12.813Z,4.00
2022-10-21T15:51:06.640Z,3.80
2022-10-21T15:53:59.076Z,5.00
2022-10-21T15:57:04.463Z,4.10
2022-10-21T16:00:03.472Z,4.30
2022-10-21T16:02:51.791Z,3.65
2022-10-21T16:08:43.705Z,4.22
2022-10-21T16:12:00.137Z,5.57
2022-10-21T16:17:54.678Z,3.90
2022-10-21T16:23:53.752Z,43.92
2022-10-21T16:26:51.494Z,25.67
2022-10-21T16:29:45.324Z,13.18
2022-10-21T16:32:45.480Z,7.65
2022-10-21T16:55:56.910Z,8.98
2022-10-21T16:58:44.737Z,9.20
2022-10-21T17:01:43.473Z,8.32
2022-10-21T17:07:32.454Z,6.37
2022-10-21T17:10:26.449Z,8.38
